createdAt,value
2022-12-08T00:00:17.622Z,34.35
2022-12-08T00:03:07.942Z,34.47
2022-12-08T00:06:16.786Z,34.42
2022-12-08T00:09:26.330Z,34.42
2022-12-08T00:12:18.244Z,34.48
2022-12-08T00:15:10.891Z,34.48
2022-12-08T00:18:02.048Z,34.48
2022-12-08T00:20:58.167Z,34.49
2022-12-08T00:23:48.578Z,34.52
2022-12-08T00:26:39.875Z,34.57
2022-12-08T00:29:31.678Z,34.49
2022-12-08T00:32:23.383Z,34.46
2022-12-08T00:35:14.044Z,34.46
2022-12-08T00:38:05.078Z,34.60
2022-12-08T00:40:56.027Z,34.55
2022-12-08T00:43:47.267Z,34.42
2022-12-08T00:46:38.397Z,34.48
2022-12-08T00:49:28.938Z,34.40
2022-12-08T00:52:19.611Z,34.37
2022-12-08T00:55:12.988Z,34.35
2022-12-08T00:58:03.771Z,34.35
2022-12-08T01:00:54.614Z,34.29
2022-12-08T01:03:45.859Z,34.23
2022-12-08T01:06:38.144Z,34.13
2022-12-08T01:09:29.300Z,34.10
2022-12-08T01:12:20.038Z,34.29
2022-12-08T01:15:11.947Z,34.18
2022-12-08T01:18:02.686Z,34.18
2022-12-08T01:20:53.178Z,34.26
2022-12-08T01:23:43.941Z,34.16
2022-12-08T01:26:33.904Z,34.24
2022-12-08T01:29:25.113Z,34.37
2022-12-08T01:32:15.404Z,34.38
2022-12-08T01:35:06.480Z,34.33
2022-12-08T01:37:57.234Z,34.49
2022-12-08T01:40:47.911Z,34.67
2022-12-08T01:43:58.486Z,34.68
2022-12-08T01:46:49.589Z,34.84
2022-12-08T01:49:40.201Z,34.71
2022-12-08T01:52:37.043Z,34.77
2022-12-08T01:55:32.453Z,34.85
2022-12-08T01:58:26.629Z,34.70
2022-12-08T02:01:17.601Z,34.76
2022-12-08T02:04:08.693Z,34.76
2022-12-08T02:07:06.397Z,34.84
2022-12-08T02:09:59.029Z,34.71
2022-12-08T02:12:52.127Z,34.88
2022-12-08T02:15:48.932Z,34.84
2022-12-08T02:19:14.796Z,34.81
2022-12-08T02:22:06.537Z,34.87
2022-12-08T02:25:05.715Z,35.05
2022-12-08T02:28:12.823Z,34.98
2022-12-08T02:31:12.602Z,35.03
2022-12-08T02:34:26.527Z,34.93
2022-12-08T02:37:25.388Z,35.07
2022-12-08T02:40:22.827Z,35.08
2022-12-08T02:43:21.754Z,35.13
2022-12-08T02:46:17.605Z,35.37
2022-12-08T02:49:09.387Z,35.38
2022-12-08T02:52:21.970Z,35.29
2022-12-08T02:55:20.414Z,35.33
2022-12-08T02:58:42.926Z,35.32
2022-12-08T03:01:54.204Z,35.40
2022-12-08T03:04:55.237Z,35.40
2022-12-08T03:07:54.887Z,35.33
2022-12-08T03:10:48.207Z,35.44
2022-12-08T03:13:43.599Z,35.46
2022-12-08T03:16:38.439Z,35.39
2022-12-08T03:19:32.831Z,35.48
2022-12-08T03:22:26.947Z,35.63
2022-12-08T03:25:20.138Z,35.62
2022-12-08T03:28:10.528Z,35.64
2022-12-08T03:31:06.409Z,35.65
2022-12-08T03:33:59.925Z,35.60
2022-12-08T03:36:49.931Z,35.54
2022-12-08T03:39:39.837Z,35.54
2022-12-08T03:42:29.817Z,35.67
2022-12-08T03:45:20.082Z,35.62
2022-12-08T03:48:10.671Z,35.43
2022-12-08T03:51:00.871Z,35.51
2022-12-08T03:53:51.804Z,35.54
2022-12-08T03:56:41.860Z,35.64
2022-12-08T03:59:32.321Z,35.50
2022-12-08T04:02:22.855Z,35.65
2022-12-08T04:05:13.758Z,35.45
2022-12-08T04:08:04.214Z,35.44
2022-12-08T04:10:54.141Z,35.64
2022-12-08T04:13:45.161Z,35.69
2022-12-08T04:16:34.952Z,35.49
2022-12-08T04:19:24.510Z,35.48
2022-12-08T04:22:14.666Z,35.70
2022-12-08T04:25:05.304Z,35.69
2022-12-08T04:27:56.455Z,35.67
2022-12-08T04:30:47.107Z,35.54
2022-12-08T04:33:37.193Z,35.61
2022-12-08T04:36:27.227Z,35.59
2022-12-08T04:39:17.318Z,35.76
2022-12-08T04:42:07.422Z,35.70
2022-12-08T04:44:57.589Z,35.89
2022-12-08T04:47:47.840Z,35.75
2022-12-08T04:50:40.154Z,35.78
2022-12-08T04:53:30.979Z,35.70
2022-12-08T04:56:21.876Z,35.95
2022-12-08T04:59:11.825Z,35.89
2022-12-08T05:02:02.512Z,35.95
2022-12-08T05:04:53.098Z,35.97
2022-12-08T05:07:43.534Z,36.02
2022-12-08T05:10:34.182Z,36.05
2022-12-08T05:13:24.079Z,35.69
2022-12-08T05:16:16.497Z,35.65
2022-12-08T05:19:07.071Z,35.76
2022-12-08T05:21:57.078Z,35.93
2022-12-08T05:24:47.821Z,36.02
2022-12-08T05:27:39.248Z,36.05
2022-12-08T05:30:29.684Z,36.03
2022-12-08T05:33:20.660Z,36.23
2022-12-08T05:36:13.385Z,36.31
2022-12-08T05:39:04.008Z,36.46
2022-12-08T05:41:54.320Z,36.41
2022-12-08T05:44:44.841Z,36.52
2022-12-08T05:47:36.362Z,36.45
2022-12-08T05:50:26.649Z,36.35
2022-12-08T05:53:19.470Z,36.47
2022-12-08T05:56:12.249Z,36.51
2022-12-08T05:59:02.535Z,36.37
2022-12-08T06:01:52.818Z,36.23
2022-12-08T06:04:43.364Z,36.30
2022-12-08T06:07:33.552Z,36.18
2022-12-08T06:10:23.694Z,36.38
2022-12-08T06:13:14.629Z,36.40
2022-12-08T06:16:08.360Z,36.30
2022-12-08T06:18:58.678Z,36.20
2022-12-08T06:21:49.013Z,36.24
2022-12-08T06:24:39.468Z,36.27
2022-12-08T06:27:30.403Z,36.22
2022-12-08T06:30:21.471Z,36.45
2022-12-08T06:33:11.974Z,36.48
2022-12-08T06:36:03.090Z,36.76
2022-12-08T06:38:53.215Z,36.79
2022-12-08T06:41:57.342Z,36.73
2022-12-08T06:44:47.908Z,36.69
2022-12-08T06:47:37.916Z,37.64
2022-12-08T06:50:28.785Z,38.17
2022-12-08T06:53:19.654Z,38.17
2022-12-08T06:56:11.302Z,37.72
2022-12-08T06:59:02.138Z,37.74
2022-12-08T07:01:52.586Z,38.67
2022-12-08T07:04:43.536Z,38.22
2022-12-08T07:07:34.128Z,37.68
2022-12-08T07:10:24.551Z,37.21
2022-12-08T07:13:14.711Z,37.12
2022-12-08T07:16:09.133Z,37.36
2022-12-08T07:18:59.397Z,36.76
2022-12-08T07:21:49.552Z,36.60
2022-12-08T07:24:40.041Z,36.86
2022-12-08T07:27:29.819Z,37.50
2022-12-08T07:30:20.476Z,37.00
2022-12-08T07:33:10.667Z,37.04
2022-12-08T07:36:02.429Z,36.88
2022-12-08T07:38:54.401Z,36.23
2022-12-08T07:41:44.774Z,36.07
2022-12-08T07:44:35.358Z,35.81
2022-12-08T07:47:25.549Z,35.70
2022-12-08T07:50:15.538Z,35.62
2022-12-08T07:53:05.741Z,35.60
2022-12-08T07:55:55.654Z,35.70
2022-12-08T07:58:46.930Z,35.69
2022-12-08T08:01:37.460Z,35.88
2022-12-08T08:04:27.760Z,35.89
2022-12-08T08:07:18.048Z,35.92
2022-12-08T08:10:10.060Z,36.19
2022-12-08T08:13:02.992Z,36.25
2022-12-08T08:15:53.153Z,36.35
2022-12-08T08:18:43.619Z,36.41
2022-12-08T08:21:48.664Z,36.37
2022-12-08T08:24:43.222Z,36.36
2022-12-08T08:27:35.379Z,36.24
2022-12-08T08:30:26.023Z,36.00
2022-12-08T08:33:16.577Z,36.10
2022-12-08T08:36:10.632Z,36.46
2022-12-08T08:39:01.149Z,36.46
2022-12-08T08:41:51.163Z,36.43
2022-12-08T08:44:41.535Z,36.77
2022-12-08T08:47:31.361Z,36.70
2022-12-08T08:50:21.400Z,36.79
2022-12-08T08:53:12.064Z,36.98
2022-12-08T08:56:03.453Z,37.58
2022-12-08T08:58:55.203Z,37.20
2022-12-08T09:01:45.109Z,37.23
2022-12-08T09:04:36.063Z,36.96
2022-12-08T09:07:26.538Z,37.10
2022-12-08T09:10:17.783Z,37.10
2022-12-08T09:13:07.683Z,36.49
2022-12-08T09:15:58.139Z,36.01
2022-12-08T09:18:49.619Z,36.03
2022-12-08T09:21:40.755Z,35.61
2022-12-08T09:24:30.722Z,34.87
2022-12-08T09:27:21.714Z,34.48
2022-12-08T09:30:14.869Z,33.90
2022-12-08T09:33:05.296Z,33.82
2022-12-08T09:35:55.497Z,33.29
2022-12-08T09:38:46.697Z,33.28
2022-12-08T09:41:44.771Z,33.66
2022-12-08T09:44:57.447Z,33.52
2022-12-08T09:47:55.882Z,32.80
2022-12-08T09:50:52.899Z,32.88
2022-12-08T09:53:50.272Z,32.81
2022-12-08T09:56:41.016Z,32.76
2022-12-08T09:59:33.804Z,32.57
2022-12-08T10:02:26.709Z,32.56
2022-12-08T10:05:17.850Z,32.46
2022-12-08T10:08:18.277Z,32.25
2022-12-08T10:11:15.093Z,31.81
2022-12-08T10:14:16.917Z,31.83
2022-12-08T10:17:14.489Z,31.91
2022-12-08T10:20:11.837Z,31.84
2022-12-08T10:23:10.589Z,31.63
2022-12-08T10:26:05.655Z,31.62
2022-12-08T10:29:01.247Z,31.85
2022-12-08T10:31:51.125Z,32.17
2022-12-08T10:35:02.798Z,32.35
2022-12-08T10:38:00.774Z,32.55
2022-12-08T10:40:53.041Z,32.29
2022-12-08T10:43:49.057Z,32.07
2022-12-08T10:46:41.345Z,31.77
2022-12-08T10:49:35.619Z,31.73
2022-12-08T10:52:27.071Z,32.24
2022-12-08T10:55:19.926Z,32.60
2022-12-08T10:58:27.010Z,32.51
2022-12-08T11:01:22.096Z,32.70
2022-12-08T11:04:18.452Z,32.73
2022-12-08T11:07:11.800Z,33.03
2022-12-08T11:10:03.292Z,33.35
2022-12-08T11:12:53.414Z,33.63
2022-12-08T11:15:45.879Z,33.75
2022-12-08T11:18:45.093Z,34.25
2022-12-08T11:21:38.708Z,34.40
2022-12-08T11:24:36.056Z,34.72
2022-12-08T11:27:28.181Z,34.89
2022-12-08T11:30:21.072Z,34.87
2022-12-08T11:33:18.799Z,35.24
2022-12-08T11:36:14.191Z,35.21
2022-12-08T11:39:07.843Z,34.98
2022-12-08T11:42:01.102Z,35.03
2022-12-08T11:44:56.539Z,35.06
2022-12-08T11:47:55.986Z,35.23
2022-12-08T11:50:53.126Z,35.27
2022-12-08T11:53:53.795Z,35.32
2022-12-08T11:56:48.637Z,35.12
2022-12-08T11:59:44.574Z,35.09
2022-12-08T12:02:42.848Z,35.21
2022-12-08T12:09:05.915Z,35.12
2022-12-08T12:12:17.035Z,35.07
2022-12-08T12:15:49.903Z,35.30
2022-12-08T12:18:46.659Z,35.23
2022-12-08T12:21:40.977Z,35.18
2022-12-08T12:24:39.825Z,35.25
2022-12-08T12:27:37.102Z,35.29
2022-12-08T12:30:29.624Z,35.38
2022-12-08T12:33:21.686Z,35.51
2022-12-08T12:36:15.230Z,35.72
2022-12-08T12:39:06.425Z,35.88
2022-12-08T12:41:59.440Z,36.23
2022-12-08T12:45:10.159Z,36.48
2022-12-08T12:48:22.116Z,36.52
2022-12-08T12:51:45.608Z,36.59
2022-12-08T12:54:36.560Z,36.64
2022-12-08T12:57:36.738Z,36.86
2022-12-08T13:00:29.348Z,36.73
2022-12-08T13:03:20.930Z,36.88
2022-12-08T13:06:14.928Z,38.06
2022-12-08T13:09:07.378Z,37.43
2022-12-08T13:12:01.412Z,37.18
2022-12-08T13:14:56.028Z,37.42
2022-12-08T13:17:49.471Z,37.63
2022-12-08T13:20:48.530Z,37.58
2022-12-08T13:23:50.932Z,37.77
2022-12-08T13:26:47.227Z,37.97
2022-12-08T13:29:38.987Z,38.45
2022-12-08T13:36:24.171Z,39.05
2022-12-08T13:39:21.894Z,39.06
2022-12-08T13:42:21.550Z,39.47
2022-12-08T13:45:39.748Z,40.26
2022-12-08T13:49:36.600Z,40.21
2022-12-08T13:58:17.263Z,40.46
2022-12-08T14:01:13.406Z,40.54
2022-12-08T14:04:34.228Z,40.59
2022-12-08T14:07:16.326Z,40.93
2022-12-08T14:10:09.006Z,40.83
2022-12-08T14:13:02.310Z,40.91
2022-12-08T14:15:52.897Z,41.01
2022-12-08T14:18:43.520Z,41.18
2022-12-08T14:21:36.387Z,41.59
2022-12-08T14:24:29.066Z,41.96
2022-12-08T14:27:21.961Z,42.17
2022-12-08T14:30:21.623Z,42.14
2022-12-08T14:33:17.035Z,42.38
2022-12-08T14:36:11.013Z,42.73
2022-12-08T14:39:01.812Z,42.55
2022-12-08T14:42:03.616Z,42.38
2022-12-08T14:45:02.480Z,42.69
2022-12-08T14:47:52.963Z,43.17
2022-12-08T14:50:57.637Z,43.20
2022-12-08T14:53:54.695Z,43.52
2022-12-08T14:56:52.143Z,43.30
2022-12-08T14:59:44.058Z,43.46
2022-12-08T15:02:35.837Z,43.87
2022-12-08T15:05:30.740Z,44.01
2022-12-08T15:08:21.502Z,43.70
2022-12-08T15:11:28.869Z,43.71
2022-12-08T15:14:34.864Z,44.01
2022-12-08T15:17:42.103Z,44.54
2022-12-08T15:20:41.413Z,44.73
2022-12-08T15:23:33.711Z,44.72
2022-12-08T15:26:25.678Z,44.60
2022-12-08T15:29:20.727Z,44.54
2022-12-08T15:32:14.493Z,44.68
2022-12-08T15:35:04.909Z,44.80
2022-12-08T15:37:55.216Z,44.90
2022-12-08T15:40:46.276Z,44.76
2022-12-08T15:43:37.603Z,44.81
2022-12-08T15:46:28.855Z,44.83
2022-12-08T15:49:23.059Z,44.85
2022-12-08T15:52:17.632Z,44.80
2022-12-08T15:55:13.353Z,44.81
2022-12-08T15:58:51.835Z,45.08
2022-12-08T16:01:15.388Z,45.06
2022-12-08T16:04:37.246Z,45.00
2022-12-08T16:07:23.495Z,45.13
2022-12-08T16:10:19.926Z,45.19
2022-12-08T16:13:56.646Z,45.11
2022-12-08T16:16:44.946Z,45.01
2022-12-08T16:19:35.552Z,44.90
2022-12-08T16:26:09.056Z,44.75
2022-12-08T16:28:54.377Z,44.67
2022-12-08T16:31:45.482Z,44.56
2022-12-08T16:34:35.865Z,44.54
2022-12-08T16:37:28.868Z,44.59
2022-12-08T16:40:20.058Z,44.68
2022-12-08T16:43:12.206Z,44.81
2022-12-08T16:46:03.380Z,44.89
2022-12-08T16:48:53.437Z,45.09
2022-12-08T16:51:45.186Z,45.20
2022-12-08T16:54:36.229Z,45.22
2022-12-08T16:57:26.512Z,45.26
2022-12-08T17:00:20.690Z,45.26
2022-12-08T17:03:15.177Z,45.23
2022-12-08T17:06:09.131Z,45.15
2022-12-08T17:08:59.191Z,45.14
2022-12-08T17:11:49.651Z,45.19
2022-12-08T17:14:40.410Z,45.43
2022-12-08T17:17:30.888Z,45.85
2022-12-08T17:20:23.397Z,45.96
2022-12-08T17:23:13.494Z,46.05
2022-12-08T17:26:04.165Z,46.04
2022-12-08T17:29:01.930Z,46.07
2022-12-08T17:31:51.652Z,46.06
2022-12-08T17:34:41.168Z,46.09
2022-12-08T17:37:32.708Z,46.17
2022-12-08T17:40:26.861Z,46.14
2022-12-08T17:43:18.912Z,46.26
2022-12-08T17:46:09.376Z,46.32
2022-12-08T17:49:00.206Z,46.32
2022-12-08T17:51:51.972Z,46.53
2022-12-08T17:54:42.497Z,46.65
2022-12-08T17:57:32.498Z,46.64
2022-12-08T18:00:23.372Z,46.79
2022-12-08T18:03:13.540Z,46.78
2022-12-08T18:06:09.093Z,46.69
2022-12-08T18:08:59.692Z,46.68
2022-12-08T18:11:50.788Z,46.67
2022-12-08T18:14:41.518Z,46.41
2022-12-08T18:17:32.353Z,46.27
2022-12-08T18:20:22.852Z,46.10
2022-12-08T18:23:13.885Z,45.95
2022-12-08T18:26:04.920Z,45.93
2022-12-08T18:28:55.320Z,45.82
2022-12-08T18:31:45.452Z,45.65
2022-12-08T18:34:36.357Z,45.48
2022-12-08T18:37:26.372Z,45.26
2022-12-08T18:40:19.261Z,45.02
2022-12-08T18:43:09.750Z,44.81
2022-12-08T18:46:06.058Z,44.65
2022-12-08T18:48:56.624Z,44.55
2022-12-08T18:51:47.147Z,44.50
2022-12-08T18:55:05.383Z,44.36
2022-12-08T18:57:47.709Z,44.26
2022-12-08T19:00:38.202Z,44.14
2022-12-08T19:03:28.775Z,44.20
2022-12-08T19:06:19.277Z,44.18
2022-12-08T19:09:10.135Z,44.21
2022-12-08T19:12:00.018Z,44.36
2022-12-08T19:14:50.839Z,44.16
2022-12-08T19:17:41.556Z,43.94
2022-12-08T19:20:32.251Z,43.95
2022-12-08T19:23:22.635Z,43.91
2022-12-08T19:26:14.770Z,43.97
2022-12-08T19:29:04.975Z,44.01
2022-12-08T19:31:55.232Z,44.07
2022-12-08T19:34:45.092Z,43.95
2022-12-08T19:37:35.677Z,43.91
2022-12-08T19:40:43.702Z,43.93
2022-12-08T19:43:48.064Z,43.76
2022-12-08T19:46:40.575Z,43.80
2022-12-08T19:49:31.228Z,43.70
2022-12-08T19:52:22.385Z,43.57
2022-12-08T19:55:13.858Z,43.53
2022-12-08T19:58:04.266Z,43.53
2022-12-08T20:00:56.869Z,43.68
2022-12-08T20:03:47.488Z,43.82
2022-12-08T20:06:38.028Z,43.99
2022-12-08T20:09:28.466Z,43.98
2022-12-08T20:12:18.397Z,44.01
2022-12-08T20:15:11.196Z,43.95
2022-12-08T20:18:03.170Z,43.90
2022-12-08T20:20:53.718Z,43.83
2022-12-08T20:23:45.900Z,43.69
2022-12-08T20:26:35.897Z,43.67
2022-12-08T20:29:26.374Z,43.61
2022-12-08T20:32:17.078Z,43.54
2022-12-08T20:35:10.187Z,43.52
2022-12-08T20:38:00.862Z,43.65
2022-12-08T20:40:51.717Z,43.77
2022-12-08T20:43:42.413Z,43.85
2022-12-08T20:46:34.659Z,44.12
2022-12-08T20:49:29.755Z,44.26
2022-12-08T20:52:23.385Z,44.63
2022-12-08T20:55:13.985Z,44.59
2022-12-08T20:58:04.404Z,44.47
2022-12-08T21:00:54.813Z,44.78
2022-12-08T21:03:45.510Z,44.86
2022-12-08T21:06:36.393Z,45.09
2022-12-08T21:09:27.007Z,45.30
2022-12-08T21:12:18.471Z,45.35
2022-12-08T21:15:12.856Z,45.49
2022-12-08T21:18:03.638Z,45.69
2022-12-08T21:20:55.007Z,45.94
2022-12-08T21:23:45.364Z,45.84
2022-12-08T21:26:35.154Z,45.86
2022-12-08T21:29:25.456Z,45.86
2022-12-08T21:32:15.419Z,45.73
2022-12-08T21:35:06.803Z,45.68
2022-12-08T21:37:56.809Z,45.70
2022-12-08T21:40:47.607Z,45.72
2022-12-08T21:43:38.857Z,45.80
2022-12-08T21:46:28.726Z,45.94
2022-12-08T21:49:19.875Z,46.16
2022-12-08T21:52:09.810Z,46.35
2022-12-08T21:55:00.336Z,46.65
2022-12-08T21:57:50.890Z,47.08
2022-12-08T22:00:41.379Z,47.19
2022-12-08T22:03:32.019Z,47.26
2022-12-08T22:06:22.505Z,47.32
2022-12-08T22:09:13.677Z,47.31
2022-12-08T22:12:04.307Z,47.44
2022-12-08T22:14:54.478Z,47.51
2022-12-08T22:17:45.642Z,47.82
2022-12-08T22:20:40.852Z,47.78
2022-12-08T22:23:33.436Z,47.71
2022-12-08T22:26:23.364Z,47.51
2022-12-08T22:29:13.350Z,47.60
2022-12-08T22:32:03.548Z,47.58
2022-12-08T22:34:54.071Z,47.49
2022-12-08T22:37:44.039Z,47.54
2022-12-08T22:40:34.204Z,47.52
2022-12-08T22:43:24.769Z,47.48
2022-12-08T22:46:18.611Z,47.37
2022-12-08T22:49:08.801Z,47.23
2022-12-08T22:51:59.132Z,47.02
2022-12-08T22:54:48.908Z,47.10
2022-12-08T22:57:38.986Z,47.13
2022-12-08T23:00:29.987Z,47.09
2022-12-08T23:03:20.321Z,46.91
2022-12-08T23:06:17.055Z,46.64
2022-12-08T23:09:08.659Z,46.68
2022-12-08T23:11:59.650Z,46.55
2022-12-08T23:14:49.984Z,46.37
2022-12-08T23:17:39.994Z,46.22
2022-12-08T23:20:30.273Z,46.22
2022-12-08T23:23:19.998Z,46.18
2022-12-08T23:26:17.554Z,46.13
2022-12-08T23:29:07.728Z,46.26
2022-12-08T23:31:57.850Z,46.61
2022-12-08T23:34:48.079Z,46.97
2022-12-08T23:37:38.352Z,47.47
2022-12-08T23:40:28.974Z,47.27
2022-12-08T23:43:18.832Z,47.33
2022-12-08T23:46:09.789Z,47.33
2022-12-08T23:49:00.872Z,47.47
2022-12-08T23:51:50.491Z,47.49
2022-12-08T23:54:41.455Z,47.55
2022-12-08T23:57:31.173Z,47.62
